KORD/ORD METAR and TAF weather

Enter ICAO airport designator
Station Type Date Time Source
KORD METAR 2019/11/14 03:51 UTC NOAA

KORD 140351Z 23005KT 9SM SCT036 BKN044 OVC052 M03/M07 A3008 RMK AO2 SNB05E51 SLP198 P0000 T10331072


Station Type Date Time Source
KORD Decoded METAR 2019/11/14 03:51 UTC NOAA

CHICAGO O'HARE INTERNATIONAL, IL, United States (KORD) 41-59N 087-55W 200M
Nov 13, 2019 - 10:51 PM EST / 2019.11.14 0351 UTC
Wind: from the SW (230 degrees) at 6 MPH (5 KT):0
Visibility: 9 mile(s):0
Sky conditions: overcast
Precipitation last hour: A trace
Temperature: 26.1 F (-3.3 C)
Windchill: 19 F (-7 C):1
Dew Point: 19.0 F (-7.2 C)
Relative Humidity: 74%
Pressure (altimeter): 30.08 in. Hg (1018 hPa)
ob: KORD 140351Z 23005KT 9SM SCT036 BKN044 OVC052 M03/M07 A3008 RMK AO2 SNB05E51 SLP198 P0000 T10331072
cycle: 4

Station Type Date Time Source
KORD TAF 2019/11/14 03:06 UTC NOAA

TAF
AMD KORD 140305Z 1403/1506 23009KT 4SM -SN OVC030
TEMPO 1405/1407 2SM -SN BKN025
FM140800 28006KT P6SM OVC025
FM141800 28009KT P6SM SCT025

Example: see airport list